createdAt,value
2023-01-11T00:01:04.059Z,99721.56
2023-01-11T00:03:31.425Z,99721.63
2023-01-11T00:05:58.922Z,99724.75
2023-01-11T00:08:27.039Z,99725.31
2023-01-11T00:10:54.182Z,99726.41
2023-01-11T00:13:21.167Z,99732.66
2023-01-11T00:15:47.927Z,99730.59
2023-01-11T00:18:14.632Z,99732.69
2023-01-11T00:20:41.666Z,99730.38
2023-01-11T00:23:08.720Z,99723.88
2023-01-11T00:25:35.635Z,99724.94
2023-01-11T00:28:02.340Z,99736.88
2023-01-11T00:30:29.077Z,99732.22
2023-01-11T00:32:57.093Z,99738.22
2023-01-11T00:35:24.227Z,99737.97
2023-01-11T00:37:53.259Z,99735.63
2023-01-11T00:40:20.500Z,99739.00
2023-01-11T00:43:05.642Z,99740.06
2023-01-11T00:45:50.822Z,99734.63
2023-01-11T00:48:17.583Z,99737.00
2023-01-11T00:50:44.298Z,99742.75
2023-01-11T00:53:11.159Z,99743.50
2023-01-11T00:55:37.949Z,99742.47
2023-01-11T00:58:04.764Z,99744.31
2023-01-11T01:00:31.509Z,99740.69
2023-01-11T01:02:58.359Z,99740.22
2023-01-11T01:05:25.191Z,99737.09
2023-01-11T01:07:51.956Z,99751.34
2023-01-11T01:10:18.896Z,99752.13
2023-01-11T01:13:05.064Z,99757.88
2023-01-11T01:15:32.826Z,99757.88
2023-01-11T01:17:59.720Z,99752.91
2023-01-11T01:20:26.599Z,99754.47
2023-01-11T01:22:53.415Z,99759.69
2023-01-11T01:25:20.173Z,99759.69
2023-01-11T01:27:47.053Z,99759.69
2023-01-11T01:30:15.671Z,99753.69
2023-01-11T01:32:42.754Z,99754.47
2023-01-11T01:35:09.642Z,99762.53
2023-01-11T01:37:36.374Z,99759.94
2023-01-11T01:40:03.912Z,99742.22
2023-01-11T01:42:30.657Z,99741.19
2023-01-11T01:45:01.423Z,99757.31
2023-01-11T01:47:32.942Z,99755.81
2023-01-11T01:50:03.388Z,99743.84
2023-01-11T01:52:31.644Z,99761.00
2023-01-11T01:55:00.247Z,99759.41
2023-01-11T01:57:31.595Z,99761.47
2023-01-11T02:00:01.873Z,99760.91
2023-01-11T02:02:28.768Z,99760.69
2023-01-11T02:04:56.572Z,99766.13
2023-01-11T02:07:27.735Z,99769.47
2023-01-11T02:10:06.543Z,99765.56
2023-01-11T02:12:57.210Z,99766.91
2023-01-11T02:15:24.259Z,99753.69
2023-01-11T02:17:51.434Z,99762.47
2023-01-11T02:20:30.024Z,99763.53
2023-01-11T02:23:17.841Z,99767.22
2023-01-11T02:26:15.952Z,99768.78
2023-01-11T02:29:16.560Z,99778.91
2023-01-11T02:32:25.046Z,99785.94
2023-01-11T02:35:35.299Z,99784.94
2023-01-11T02:38:09.985Z,99781.81
2023-01-11T02:41:10.781Z,99782.09
2023-01-11T02:44:06.116Z,99784.44
2023-01-11T02:46:44.517Z,99792.28
2023-01-11T02:49:14.196Z,99795.91
2023-01-11T02:51:44.507Z,99790.72
2023-01-11T02:54:12.103Z,99787.09
2023-01-11T02:56:44.258Z,99780.63
2023-01-11T02:59:13.644Z,99783.00
2023-01-11T03:01:47.656Z,99786.63
2023-01-11T03:04:34.627Z,99787.16
2023-01-11T03:07:29.293Z,99785.34
2023-01-11T03:10:19.845Z,99786.13
2023-01-11T03:12:52.679Z,99785.13
2023-01-11T03:15:49.715Z,99785.13
2023-01-11T03:18:27.113Z,99782.28
2023-01-11T03:21:12.822Z,99795.50
2023-01-11T03:23:49.451Z,99796.03
2023-01-11T03:26:30.357Z,99806.16
2023-01-11T03:29:19.429Z,99794.00
2023-01-11T03:32:21.160Z,99816.31
2023-01-11T03:35:01.613Z,99820.47
2023-01-11T03:37:37.361Z,99816.84
2023-01-11T03:40:07.105Z,99823.59
2023-01-11T03:42:34.244Z,99835.00
2023-01-11T03:45:01.607Z,99824.63
2023-01-11T03:47:30.323Z,99827.75
2023-01-11T03:50:05.096Z,99830.84
2023-01-11T03:52:35.936Z,99830.06
2023-01-11T03:55:04.885Z,99835.25
2023-01-11T03:57:33.939Z,99843.81
2023-01-11T04:00:00.639Z,99845.13
2023-01-11T04:02:33.979Z,99841.75
2023-01-11T04:05:00.981Z,99836.59
2023-01-11T04:07:28.346Z,99826.22
2023-01-11T04:09:55.091Z,99814.31
2023-01-11T04:12:21.779Z,99797.72
2023-01-11T04:14:48.473Z,99795.13
2023-01-11T04:17:15.166Z,99803.94
2023-01-11T04:19:41.911Z,99800.84
2023-01-11T04:22:08.637Z,99799.03
2023-01-11T04:24:35.346Z,99809.41
2023-01-11T04:27:02.093Z,99813.81
2023-01-11T04:29:28.830Z,99807.84
2023-01-11T04:31:55.713Z,99817.69
2023-01-11T04:34:22.478Z,99833.75
2023-01-11T04:36:49.179Z,99843.63
2023-01-11T04:39:15.886Z,99845.97
2023-01-11T04:42:01.314Z,99851.66
2023-01-11T04:44:27.989Z,99845.44
2023-01-11T04:46:54.672Z,99843.38
2023-01-11T04:49:21.370Z,99835.31
2023-01-11T04:51:48.191Z,99832.47
2023-01-11T04:54:16.153Z,99823.91
2023-01-11T04:56:42.855Z,99834.53
2023-01-11T04:59:09.565Z,99845.69
2023-01-11T05:01:36.495Z,99855.81
2023-01-11T05:04:03.311Z,99857.63
2023-01-11T05:06:30.179Z,99851.66
2023-01-11T05:08:56.978Z,99861.25
2023-01-11T05:11:23.718Z,99851.66
2023-01-11T05:13:50.990Z,99836.09
2023-01-11T05:16:20.601Z,99830.91
2023-01-11T05:18:50.116Z,99830.91
2023-01-11T05:21:20.245Z,99846.72
2023-01-11T05:23:47.401Z,99850.88
2023-01-11T05:26:20.036Z,99849.31
2023-01-11T05:28:47.026Z,99841.81
2023-01-11T05:31:13.845Z,99833.50
2023-01-11T05:33:40.698Z,99839.75
2023-01-11T05:36:10.836Z,99854.25
2023-01-11T05:38:37.671Z,99859.69
2023-01-11T05:41:10.201Z,99857.63
2023-01-11T05:43:58.024Z,99857.84
2023-01-11T05:46:26.358Z,99865.63
2023-01-11T05:48:54.853Z,99845.41
2023-01-11T05:51:22.744Z,99851.91
2023-01-11T05:53:49.577Z,99848.00
2023-01-11T05:56:16.269Z,99850.84
2023-01-11T05:58:42.932Z,99836.63
2023-01-11T06:01:12.425Z,99844.63
2023-01-11T06:03:39.218Z,99843.84
2023-01-11T06:06:06.205Z,99833.72
2023-01-11T06:08:33.157Z,99823.38
2023-01-11T06:11:00.193Z,99830.13
2023-01-11T06:13:27.243Z,99835.03
2023-01-11T06:15:54.504Z,99840.75
2023-01-11T06:18:21.725Z,99836.63
2023-01-11T06:20:52.451Z,99842.53
2023-01-11T06:23:19.347Z,99846.97
2023-01-11T06:25:46.665Z,99846.97
2023-01-11T06:28:13.842Z,99848.00
2023-01-11T06:30:40.996Z,99855.78
2023-01-11T06:33:08.088Z,99844.91
2023-01-11T06:35:39.697Z,99845.44
2023-01-11T06:38:08.454Z,99850.06
2023-01-11T06:40:35.843Z,99853.13
2023-01-11T06:43:02.735Z,99858.31
2023-01-11T06:45:30.453Z,99856.50
2023-01-11T06:47:57.599Z,99865.59
2023-01-11T06:50:24.671Z,99868.19
2023-01-11T06:52:59.144Z,99852.13
2023-01-11T06:55:27.884Z,99838.91
2023-01-11T06:57:55.225Z,99832.94
2023-01-11T07:00:22.617Z,99846.41
2023-01-11T07:02:49.541Z,99861.47
2023-01-11T07:05:19.187Z,99877.00
2023-01-11T07:07:46.473Z,99885.84
2023-01-11T07:10:15.185Z,99893.38
2023-01-11T07:12:42.356Z,99895.69
2023-01-11T07:15:10.329Z,99890.44
2023-01-11T07:17:37.147Z,99880.56
2023-01-11T07:20:05.514Z,99895.06
2023-01-11T07:22:36.173Z,99897.09
2023-01-11T07:25:04.717Z,99908.47
2023-01-11T07:27:31.786Z,99913.63
2023-01-11T07:30:01.308Z,99908.63
2023-01-11T07:32:28.720Z,99922.28
2023-01-11T07:34:56.174Z,99932.31
2023-01-11T07:37:28.953Z,99934.16
2023-01-11T07:39:56.167Z,99937.31
2023-01-11T07:42:41.554Z,99948.94
2023-01-11T07:45:08.765Z,99956.81
2023-01-11T07:47:35.486Z,99942.34
2023-01-11T07:50:02.246Z,99934.69
2023-01-11T07:52:29.045Z,99929.50
2023-01-11T07:55:02.140Z,99930.56
2023-01-11T07:57:29.981Z,99936.66
2023-01-11T07:59:56.860Z,99934.91
2023-01-11T08:02:25.321Z,99936.78
2023-01-11T08:04:52.189Z,99932.31
2023-01-11T08:07:18.922Z,99932.50
2023-01-11T08:09:45.646Z,99940.19
2023-01-11T08:12:30.869Z,99947.28
2023-01-11T08:15:00.449Z,99939.38
2023-01-11T08:17:27.614Z,99942.72
2023-01-11T08:19:55.914Z,99953.72
2023-01-11T08:22:22.844Z,99957.28
2023-01-11T08:24:49.828Z,99943.41
2023-01-11T08:27:16.549Z,99947.88
2023-01-11T08:29:44.321Z,99947.91
2023-01-11T08:32:12.321Z,99949.59
2023-01-11T08:34:39.436Z,99958.94
2023-01-11T08:37:06.279Z,99966.69
2023-01-11T08:39:33.419Z,99971.22
2023-01-11T08:42:00.636Z,99974.09
2023-01-11T08:44:34.993Z,99968.94
2023-01-11T08:47:03.179Z,99966.81
2023-01-11T08:49:30.638Z,99965.13
2023-01-11T08:51:57.691Z,99961.91
2023-01-11T08:54:25.146Z,99976.38
2023-01-11T08:56:52.010Z,99975.53
2023-01-11T08:59:20.057Z,99975.31
2023-01-11T09:01:47.288Z,99971.56
2023-01-11T09:04:24.109Z,99968.56
2023-01-11T09:06:51.875Z,99974.06
2023-01-11T09:09:18.615Z,99979.13
2023-01-11T09:11:54.661Z,99972.72
2023-01-11T09:14:22.623Z,99973.19
2023-01-11T09:16:51.779Z,99982.22
2023-01-11T09:19:18.592Z,99985.06
2023-01-11T09:21:46.466Z,99982.75
2023-01-11T09:24:14.078Z,99985.97
2023-01-11T09:26:43.336Z,99986.16
2023-01-11T09:29:11.256Z,99972.53
2023-01-11T09:31:42.870Z,99962.66
2023-01-11T09:34:12.867Z,99962.72
2023-01-11T09:36:40.601Z,99960.47
2023-01-11T09:39:15.074Z,99954.19
2023-01-11T09:42:19.265Z,99947.13
2023-01-11T09:44:53.115Z,99952.63
2023-01-11T09:48:04.788Z,99953.72
2023-01-11T09:50:41.737Z,99954.94
2023-01-11T09:53:17.518Z,99955.06
2023-01-11T09:55:46.920Z,99954.75
2023-01-11T09:58:33.410Z,99945.88
2023-01-11T10:01:10.775Z,99947.78
2023-01-11T10:04:06.284Z,99951.63
2023-01-11T10:07:21.292Z,99947.28
2023-01-11T10:18:42.660Z,99948.47
2023-01-11T10:19:18.524Z,99938.16
2023-01-11T10:21:50.723Z,99932.13
2023-01-11T10:24:23.880Z,99942.28
2023-01-11T10:26:51.644Z,99928.47
2023-01-11T10:29:59.344Z,99927.03
2023-01-11T10:32:59.142Z,99926.81
2023-01-11T10:35:48.996Z,99928.84
2023-01-11T10:38:47.320Z,99928.88
2023-01-11T10:41:25.836Z,99932.41
2023-01-11T10:44:10.081Z,99931.28
2023-01-11T10:46:44.838Z,99929.16
2023-01-11T10:49:50.307Z,99936.13
2023-01-11T10:52:41.511Z,99939.19
2023-01-11T10:55:17.785Z,99924.06
2023-01-11T10:58:01.240Z,99930.44
2023-01-11T11:00:39.483Z,99929.66
2023-01-11T11:03:39.038Z,99920.56
2023-01-11T11:06:33.496Z,99917.00
2023-01-11T11:09:35.529Z,99911.50
2023-01-11T11:12:24.214Z,99909.09
2023-01-11T11:15:46.294Z,99911.06
2023-01-11T11:18:18.656Z,99898.63
2023-01-11T11:20:47.464Z,99899.66
2023-01-11T11:23:21.959Z,99888.41
2023-01-11T11:25:51.817Z,99885.25
2023-01-11T11:28:30.595Z,99883.31
2023-01-11T11:31:03.180Z,99877.09
2023-01-11T11:33:38.326Z,99866.63
2023-01-11T11:36:12.858Z,99864.19
2023-01-11T11:38:42.505Z,99863.16
2023-01-11T11:41:15.016Z,99866.50
2023-01-11T11:43:43.644Z,99870.94
2023-01-11T11:46:20.180Z,99864.78
2023-01-11T11:49:15.243Z,99866.84
2023-01-11T11:51:43.460Z,99866.06
2023-01-11T11:54:31.661Z,99868.94
2023-01-11T11:57:01.171Z,99871.31
2023-01-11T11:59:29.992Z,99873.72
2023-01-11T12:02:00.975Z,99885.13
2023-01-11T12:04:47.509Z,99880.56
2023-01-11T12:07:22.414Z,99870.28
2023-01-11T12:09:55.055Z,99875.56
2023-01-11T12:12:25.897Z,99874.09
2023-01-11T12:15:07.962Z,99876.97
2023-01-11T12:17:35.115Z,99885.47
2023-01-11T12:20:02.024Z,99885.72
2023-01-11T12:22:29.141Z,99893.13
2023-01-11T12:25:08.316Z,99892.31
2023-01-11T12:27:55.319Z,99896.91
2023-01-11T12:30:27.140Z,99891.56
2023-01-11T12:33:12.573Z,99889.78
2023-01-11T12:35:41.955Z,99892.78
2023-01-11T12:38:18.127Z,99891.25
2023-01-11T12:41:04.312Z,99891.28
2023-01-11T12:43:44.458Z,99887.91
2023-01-11T12:46:34.394Z,99886.28
2023-01-11T12:49:16.247Z,99880.38
2023-01-11T12:52:20.547Z,99890.97
2023-01-11T12:55:20.789Z,99889.41
2023-01-11T12:58:08.889Z,99885.22
2023-01-11T13:00:57.128Z,99885.50
2023-01-11T13:03:48.479Z,99885.75
2023-01-11T13:06:21.396Z,99878.75
2023-01-11T13:09:03.257Z,99877.00
2023-01-11T13:11:57.593Z,99877.22
2023-01-11T13:14:49.597Z,99878.06
2023-01-11T13:17:22.253Z,99889.78
2023-01-11T13:20:16.935Z,99890.34
2023-01-11T13:22:47.962Z,99880.28
2023-01-11T13:25:18.930Z,99885.91
2023-01-11T13:27:46.518Z,99888.09
2023-01-11T13:30:14.732Z,99892.13
2023-01-11T13:32:43.227Z,99894.41
2023-01-11T13:35:24.738Z,99899.34
2023-01-11T13:37:58.752Z,99895.41
2023-01-11T13:40:36.118Z,99899.31
2023-01-11T13:43:10.138Z,99899.72
2023-01-11T13:45:48.712Z,99897.91
2023-01-11T13:48:29.860Z,99903.81
2023-01-11T13:51:04.585Z,99898.25
2023-01-11T13:53:42.537Z,99897.63
2023-01-11T13:56:18.843Z,99898.25
2023-01-11T13:59:04.135Z,99893.34
2023-01-11T14:01:48.040Z,99897.31
2023-01-11T14:04:21.310Z,99892.59
2023-01-11T14:07:13.069Z,99887.16
2023-01-11T14:09:53.937Z,99881.81
2023-01-11T14:12:32.617Z,99878.63
2023-01-11T14:15:02.131Z,99872.91
2023-01-11T14:18:09.358Z,99877.34
2023-01-11T14:21:19.207Z,99884.25
2023-01-11T14:23:55.242Z,99881.63
2023-01-11T14:26:59.695Z,99878.63
2023-01-11T14:29:29.448Z,99878.72
2023-01-11T14:32:32.887Z,99881.78
2023-01-11T14:35:37.391Z,99874.53
2023-01-11T14:38:31.861Z,99871.97
2023-01-11T14:41:11.697Z,99871.41
2023-01-11T14:44:23.492Z,99864.81
2023-01-11T14:47:35.442Z,99868.38
2023-01-11T14:50:14.336Z,99864.94
2023-01-11T14:52:41.661Z,99868.00
2023-01-11T14:55:18.077Z,99868.72
2023-01-11T14:58:01.441Z,99876.22
2023-01-11T15:00:28.161Z,99879.25
2023-01-11T15:03:00.755Z,99878.59
2023-01-11T15:05:33.567Z,99873.25
2023-01-11T15:08:31.526Z,99869.91
2023-01-11T15:10:59.902Z,99871.16
2023-01-11T15:13:45.539Z,99865.22
2023-01-11T15:16:37.960Z,99858.31
2023-01-11T15:19:07.131Z,99855.66
2023-01-11T15:21:40.691Z,99863.34
2023-01-11T15:24:22.232Z,99865.22
2023-01-11T15:26:49.314Z,99859.34
2023-01-11T15:29:42.695Z,99859.22
2023-01-11T15:32:30.163Z,99862.38
2023-01-11T15:35:36.203Z,99854.34
2023-01-11T15:38:13.700Z,99863.16
2023-01-11T15:40:46.538Z,99864.41
2023-01-11T15:43:32.050Z,99864.56
2023-01-11T15:46:49.669Z,99857.19
2023-01-11T15:49:41.841Z,99867.13
2023-01-11T15:52:39.445Z,99864.19
2023-01-11T15:55:21.153Z,99859.19
2023-01-11T15:58:32.216Z,99855.47
2023-01-11T16:00:59.109Z,99856.94
2023-01-11T16:03:44.969Z,99858.66
2023-01-11T16:06:47.664Z,99857.78
2023-01-11T16:09:31.070Z,99852.16
2023-01-11T16:12:23.275Z,99849.91
2023-01-11T16:15:01.912Z,99852.28
2023-01-11T16:17:29.457Z,99857.00
2023-01-11T16:19:57.112Z,99857.75
2023-01-11T16:22:28.286Z,99859.38
2023-01-11T16:25:01.407Z,99855.50
2023-01-11T16:27:32.303Z,99852.97
2023-01-11T16:29:59.300Z,99851.97
2023-01-11T16:32:33.889Z,99854.13
2023-01-11T16:35:01.834Z,99851.59
2023-01-11T16:37:35.129Z,99850.31
2023-01-11T16:40:11.259Z,99854.53
2023-01-11T16:43:00.837Z,99854.78
2023-01-11T16:45:45.055Z,99854.88
2023-01-11T16:48:16.124Z,99860.59
2023-01-11T16:50:58.637Z,99860.16
2023-01-11T16:53:26.810Z,99863.59
2023-01-11T16:56:02.941Z,99857.16
2023-01-11T16:58:32.527Z,99861.94
2023-01-11T17:01:04.769Z,99868.25
2023-01-11T17:03:35.208Z,99871.91
2023-01-11T17:06:08.143Z,99871.97
2023-01-11T17:08:42.712Z,99874.63
2023-01-11T17:11:32.876Z,99866.59
2023-01-11T17:14:38.535Z,99864.28
2023-01-11T17:17:07.840Z,99858.84
2023-01-11T17:19:36.950Z,99862.53
2023-01-11T17:22:13.451Z,99862.00
2023-01-11T17:24:43.121Z,99875.28
2023-01-11T17:27:18.372Z,99874.00
2023-01-11T17:29:47.372Z,99863.38
2023-01-11T17:32:32.873Z,99865.44
2023-01-11T17:35:02.375Z,99862.91
2023-01-11T17:37:29.266Z,99866.53
2023-01-11T17:39:57.884Z,99872.28
2023-01-11T17:42:43.780Z,99870.72
2023-01-11T17:45:24.837Z,99879.56
2023-01-11T17:47:53.232Z,99883.75
2023-01-11T17:50:22.382Z,99878.06
2023-01-11T17:52:54.704Z,99881.72
2023-01-11T17:55:25.391Z,99873.69
2023-01-11T17:58:19.279Z,99875.03
2023-01-11T18:01:13.695Z,99874.50
2023-01-11T18:03:49.762Z,99885.44
2023-01-11T18:06:35.761Z,99884.44
2023-01-11T18:09:18.538Z,99881.88
2023-01-11T18:11:45.385Z,99882.16
2023-01-11T18:14:27.293Z,99880.88
2023-01-11T18:17:01.253Z,99878.28
2023-01-11T18:19:54.302Z,99880.66
2023-01-11T18:22:37.112Z,99879.63
2023-01-11T18:25:39.567Z,99882.72
2023-01-11T18:28:12.218Z,99873.13
2023-01-11T18:30:41.170Z,99879.63
2023-01-11T18:33:13.339Z,99880.94
2023-01-11T18:35:44.420Z,99875.75
2023-01-11T18:38:17.888Z,99875.50
2023-01-11T18:40:45.848Z,99882.53
2023-01-11T18:43:13.025Z,99884.13
2023-01-11T18:45:41.250Z,99891.72
2023-01-11T18:48:14.965Z,99901.81
2023-01-11T18:50:42.778Z,99901.31
2023-01-11T18:53:13.925Z,99901.63
2023-01-11T18:55:41.065Z,99905.53
2023-01-11T18:58:09.879Z,99908.13
2023-01-11T19:00:37.221Z,99911.25
2023-01-11T19:03:05.053Z,99916.19
2023-01-11T19:05:31.930Z,99921.66
2023-01-11T19:07:58.802Z,99919.06
2023-01-11T19:10:26.770Z,99914.91
2023-01-11T19:12:53.585Z,99903.25
2023-01-11T19:15:21.000Z,99910.25
2023-01-11T19:17:48.100Z,99910.25
2023-01-11T19:20:15.311Z,99919.06
2023-01-11T19:22:42.371Z,99908.69
2023-01-11T19:25:11.476Z,99922.69
2023-01-11T19:27:38.464Z,99911.28
2023-01-11T19:30:06.555Z,99925.81
2023-01-11T19:32:33.955Z,99924.00
2023-01-11T19:35:01.450Z,99928.91
2023-01-11T19:37:30.060Z,99928.91
2023-01-11T19:39:57.018Z,99932.56
2023-01-11T19:42:23.930Z,99935.16
2023-01-11T19:44:51.452Z,99941.38
2023-01-11T19:47:18.815Z,99941.38
2023-01-11T19:49:45.580Z,99938.00
2023-01-11T19:52:18.832Z,99935.66
2023-01-11T19:54:46.888Z,99938.75
2023-01-11T19:57:17.871Z,99938.25
2023-01-11T19:59:45.106Z,99934.09
2023-01-11T20:02:12.949Z,99938.25
2023-01-11T20:04:40.288Z,99933.06
2023-01-11T20:07:08.088Z,99933.84
2023-01-11T20:09:37.778Z,99939.78
2023-01-11T20:12:15.985Z,99930.47
2023-01-11T20:14:44.533Z,99939.28
2023-01-11T20:17:11.876Z,99934.59
2023-01-11T20:19:38.790Z,99935.38
2023-01-11T20:22:05.777Z,99933.31
2023-01-11T20:24:32.547Z,99930.44
2023-01-11T20:27:01.188Z,99930.44
2023-01-11T20:29:28.090Z,99930.44
2023-01-11T20:31:55.762Z,99934.06
2023-01-11T20:34:22.724Z,99930.41
2023-01-11T20:36:49.760Z,99940.00
2023-01-11T20:39:17.513Z,99933.28
2023-01-11T20:41:47.211Z,99936.13
2023-01-11T20:44:32.101Z,99930.91
2023-01-11T20:46:59.511Z,99931.41
2023-01-11T20:49:28.940Z,99936.31
2023-01-11T20:51:56.445Z,99939.41
2023-01-11T20:54:23.335Z,99938.34
2023-01-11T20:56:50.511Z,99935.78
2023-01-11T20:59:20.178Z,99948.19
2023-01-11T21:01:48.345Z,99941.16
2023-01-11T21:04:16.498Z,99946.06
2023-01-11T21:06:45.458Z,99950.16
2023-01-11T21:09:14.759Z,99958.72
2023-01-11T21:11:41.801Z,99959.75
2023-01-11T21:14:12.127Z,99963.63
2023-01-11T21:16:43.010Z,99967.75
2023-01-11T21:19:14.607Z,99972.41
2023-01-11T21:21:42.012Z,99971.63
2023-01-11T21:24:12.377Z,99976.00
2023-01-11T21:26:39.290Z,99974.72
2023-01-11T21:29:06.286Z,99976.75
2023-01-11T21:31:34.808Z,99981.94
2023-01-11T21:34:02.289Z,99977.78
2023-01-11T21:36:30.568Z,99980.91
2023-01-11T21:38:58.595Z,99986.13
2023-01-11T21:41:46.346Z,99997.53
2023-01-11T21:44:14.124Z,100001.75
2023-01-11T21:46:41.171Z,100009.81
2023-01-11T21:49:08.142Z,100001.06
2023-01-11T21:51:35.355Z,100002.38
2023-01-11T21:54:10.730Z,99995.66
2023-01-11T21:56:37.916Z,99996.50
2023-01-11T21:59:04.750Z,100000.38
2023-01-11T22:01:31.689Z,99999.59
2023-01-11T22:03:58.510Z,99987.41
2023-01-11T22:06:25.304Z,99986.34
2023-01-11T22:08:52.391Z,99992.53
2023-01-11T22:11:19.178Z,99991.00
2023-01-11T22:13:45.956Z,99996.38
2023-01-11T22:16:17.633Z,99993.00
2023-01-11T22:18:45.501Z,99989.84
2023-01-11T22:21:14.380Z,99991.91
2023-01-11T22:23:41.641Z,99999.34
2023-01-11T22:26:10.796Z,100000.66
2023-01-11T22:28:57.492Z,99999.59
2023-01-11T22:31:25.078Z,100007.34
2023-01-11T22:33:51.946Z,99997.53
2023-01-11T22:36:19.348Z,100004.25
2023-01-11T22:38:46.858Z,99992.38
2023-01-11T22:41:14.857Z,100006.31
2023-01-11T22:43:43.072Z,100002.72
2023-01-11T22:46:15.438Z,100007.38
2023-01-11T22:48:42.445Z,100013.31
2023-01-11T22:51:10.305Z,100001.66
2023-01-11T22:53:41.114Z,100002.44
2023-01-11T22:56:08.872Z,100002.72
2023-01-11T22:58:38.460Z,100003.28
2023-01-11T23:01:54.202Z,100003.84
2023-01-11T23:04:20.964Z,99997.16
2023-01-11T23:06:47.888Z,100002.66
2023-01-11T23:09:16.720Z,100002.16
2023-01-11T23:12:02.825Z,100015.38
2023-01-11T23:14:33.742Z,100009.19
2023-01-11T23:17:07.108Z,100007.38
2023-01-11T23:19:38.981Z,100000.38
2023-01-11T23:22:06.630Z,99992.66
2023-01-11T23:24:33.448Z,99989.28
2023-01-11T23:27:00.293Z,99983.88
2023-01-11T23:29:27.241Z,99986.94
2023-01-11T23:31:54.026Z,99986.41
2023-01-11T23:34:20.831Z,99987.44
2023-01-11T23:36:47.579Z,99988.19
2023-01-11T23:39:15.798Z,99989.44
2023-01-11T23:42:01.249Z,99988.88
2023-01-11T23:44:27.990Z,99992.22
2023-01-11T23:47:13.150Z,99985.72
2023-01-11T23:49:39.991Z,99990.34
2023-01-11T23:52:06.797Z,99983.06
2023-01-11T23:54:34.138Z,99997.53
2023-01-11T23:57:01.954Z,99999.59
2023-01-11T23:59:28.812Z,100009.91
